Aviation Digital Data Service (ADDS)

Output produced by TAFs form (0811 UTC 04 December 2016)
found at http://www.aviationweather.gov/adds/tafs/
 
KPOU 040532Z 0406/0506 VRB03KT P6SM BKN040 
     FM041000 32004KT P6SM SCT040 
     FM041400 32007KT P6SM SKC 
     FM042300 VRB03KT P6SM BKN250 
     FM050300 00000KT P6SM BKN120 BKN250